Time;durP1;ratioP1;P1;durP2;ratioP2;P2;SDS_P1;SDS_P2;PMS_P1;PMS_P2;Temp;Humidity;BMP_temperature;BMP_pressure;BME280_temperature;BME280_humidity;BME280_pressure;Samples;Min_cycle;Max_cycle;Signal;HPM_P1;HPM_P2
2022/09/27 00:03:35;;;;;;;13.57;11.48;;;21.30;93.00;;;;;;10171511;29;20263;-85
2022/09/27 00:08:38;;;;;;;13.13;10.77;;;21.30;93.00;;;;;;10171907;29;20963;-85
2022/09/27 00:13:40;;;;;;;12.45;10.93;;;21.30;93.00;;;;;;10154302;29;20216;-85
2022/09/27 00:18:43;;;;;;;12.15;10.27;;;21.20;93.10;;;;;;10169728;29;20278;-85
2022/09/27 00:23:45;;;;;;;12.52;10.10;;;21.20;93.20;;;;;;10170610;29;20306;-85
2022/09/27 00:28:48;;;;;;;11.18;10.00;;;21.20;93.40;;;;;;10153711;29;20231;-85
2022/09/27 00:33:52;;;;;;;12.35;10.23;;;21.10;93.50;;;;;;10152410;29;20236;-85
2022/09/27 00:38:56;;;;;;;13.88;10.75;;;21.10;93.60;;;;;;10152271;29;20243;-85
2022/09/27 00:44:03;;;;;;;15.90;10.70;;;21.10;93.80;;;;;;10170698;29;20310;-85
2022/09/27 00:49:05;;;;;;;12.93;10.73;;;21.00;93.90;;;;;;10151964;29;20713;-85
2022/09/27 00:54:11;;;;;;;12.43;10.32;;;21.00;93.90;;;;;;10152943;29;20310;-85
2022/09/27 00:59:25;;;;;;;14.88;11.10;;;21.00;94.00;;;;;;10150782;29;20698;-85
2022/09/27 01:04:30;;;;;;;10.55;9.45;;;21.00;94.10;;;;;;10152620;29;20246;-85
2022/09/27 01:09:33;;;;;;;11.93;10.02;;;20.90;94.30;;;;;;10151343;29;20220;-85
2022/09/27 01:14:51;;;;;;;13.32;9.75;;;20.90;94.30;;;;;;10136966;29;20271;-85
2022/09/27 01:20:18;;;;;;;13.30;11.10;;;21.00;94.20;;;;;;10150205;29;20674;-85
2022/09/27 01:25:30;;;;;;;13.23;10.93;;;20.90;94.10;;;;;;10152059;29;20366;-85
2022/09/27 01:30:57;;;;;;;13.00;10.98;;;20.90;94.10;;;;;;10169096;29;20266;-85
2022/09/27 01:36:09;;;;;;;12.70;9.93;;;20.90;94.10;;;;;;10149345;29;20643;-85
2022/09/27 01:41:37;;;;;;;11.70;10.38;;;20.80;94.20;;;;;;10151680;29;20243;-85
2022/09/27 01:47:27;;;;;;;11.43;9.95;;;20.80;94.30;;;;;;10159378;29;20235;-85
2022/09/27 01:52:52;;;;;;;12.32;10.07;;;20.80;94.40;;;;;;10159705;29;20279;-85
2022/09/27 01:58:20;;;;;;;11.00;9.43;;;20.80;94.30;;;;;;10158956;29;20235;-85
2022/09/27 02:03:35;;;;;;;11.10;9.68;;;20.80;94.20;;;;;;10123081;29;20731;-85
2022/09/27 02:09:02;;;;;;;11.73;10.05;;;20.80;94.20;;;;;;10163881;29;20243;-85
2022/09/27 02:14:30;;;;;;;11.38;9.95;;;20.80;94.20;;;;;;10158911;29;20203;-86
2022/09/27 02:19:49;;;;;;;10.95;9.77;;;20.90;94.20;;;;;;10144182;29;20279;-85
2022/09/27 02:25:06;;;;;;;10.65;9.55;;;20.80;94.20;;;;;;10143886;29;20239;-85
2022/09/27 02:30:12;;;;;;;13.18;10.20;;;20.90;94.20;;;;;;10157599;29;20634;-85
2022/09/27 02:35:25;;;;;;;11.60;10.10;;;20.80;94.20;;;;;;10157369;29;20318;-85
2022/09/27 02:40:34;;;;;;;10.50;9.35;;;20.80;94.20;;;;;;10157712;29;20259;-85
2022/09/27 02:46:02;;;;;;;10.55;9.40;;;20.80;94.20;;;;;;10156679;29;20243;-85
2022/09/27 02:51:29;;;;;;;10.60;9.45;;;20.90;94.30;;;;;;10157330;29;20246;-85
2022/09/27 02:57:17;;;;;;;11.88;10.48;;;20.90;94.40;;;;;;10156220;29;20247;-85
2022/09/27 03:03:01;;;;;;;11.80;10.60;;;20.80;94.70;;;;;;10008129;29;20257;-85
2022/09/27 03:08:12;;;;;;;10.82;9.73;;;20.80;94.90;;;;;;10034105;29;20294;-85
2022/09/27 03:13:15;;;;;;;12.60;10.40;;;20.80;94.80;;;;;;10001330;29;20242;-84
2022/09/27 03:18:19;;;;;;;11.05;9.95;;;20.80;94.80;;;;;;10033491;29;20957;-84
2022/09/27 03:23:48;;;;;;;13.18;11.10;;;20.80;94.90;;;;;;10007763;29;20685;-84
2022/09/27 03:28:51;;;;;;;11.80;10.25;;;20.80;94.90;;;;;;10032058;29;20233;-84
2022/09/27 03:33:53;;;;;;;12.15;9.82;;;20.80;95.00;;;;;;10022989;29;20290;-84
2022/09/27 03:38:57;;;;;;;11.38;9.80;;;20.80;95.00;;;;;;10098853;29;20224;-84
2022/09/27 03:44:00;;;;;;;11.98;9.82;;;20.70;95.00;;;;;;10165666;29;20840;-84
2022/09/27 03:49:03;;;;;;;12.77;10.05;;;20.80;95.10;;;;;;10154167;29;20279;-84
2022/09/27 03:54:05;;;;;;;10.10;9.10;;;20.80;95.10;;;;;;10154623;29;20216;-84
2022/09/27 03:59:08;;;;;;;11.15;9.50;;;20.70;95.40;;;;;;10153658;29;20243;-84
2022/09/27 04:04:30;;;;;;;12.20;10.10;;;20.60;95.50;;;;;;10169789;29;20330;-84
2022/09/27 04:09:33;;;;;;;12.43;10.10;;;20.60;95.60;;;;;;10138814;29;20778;-84
2022/09/27 04:14:36;;;;;;;11.02;9.75;;;20.60;95.70;;;;;;10152299;29;20252;-84
2022/09/27 04:20:02;;;;;;;12.50;10.10;;;20.60;95.70;;;;;;10073735;29;20748;-84
2022/09/27 04:25:07;;;;;;;11.52;9.98;;;20.60;95.70;;;;;;10033220;29;20257;-84
2022/09/27 04:30:14;;;;;;;10.77;9.73;;;20.60;95.60;;;;;;10078874;29;20333;-85
2022/09/27 04:41:04;;;;;;;11.88;9.52;;;20.60;95.70;;;;;;10047881;29;20301;-85
2022/09/27 04:46:08;;;;;;;10.75;9.65;;;20.60;95.60;;;;;;10049281;29;20241;-85
2022/09/27 04:51:11;;;;;;;10.40;9.32;;;20.50;95.60;;;;;;10033931;29;20253;-85
2022/09/27 04:56:14;;;;;;;10.77;9.68;;;20.50;95.60;;;;;;10105114;29;20239;-85
2022/09/27 05:01:17;;;;;;;13.77;11.00;;;20.50;95.60;;;;;;10135889;29;20255;-85
2022/09/27 05:06:23;;;;;;;14.33;11.70;;;14.50;99.90;;;;;;10169305;29;20247;-84
2022/09/27 05:11:26;;;;;;;9.70;8.40;;;10.90;99.90;;;;;;10113603;29;20247;-87
2022/09/27 05:16:48;;;;;;;18.00;9.33;;;18.00;99.90;;;;;;10116681;29;20228;-87
2022/09/27 05:22:11;;;;;;;12.52;8.52;;;19.40;99.90;;;;;;10128750;29;20275;-87
2022/09/27 05:27:19;;;;;;;11.10;8.73;;;19.80;99.90;;;;;;10166954;29;20204;-87
2022/09/27 05:32:22;;;;;;;11.98;7.90;;;20.10;99.30;;;;;;10152857;29;20207;-87
2022/09/27 05:37:34;;;;;;;12.48;8.60;;;20.20;98.50;;;;;;10137287;29;20239;-86
2022/09/27 05:42:38;;;;;;;11.63;8.40;;;20.30;98.00;;;;;;10151076;29;20324;-88
2022/09/27 05:47:41;;;;;;;11.55;10.00;;;20.30;97.80;;;;;;10144703;29;20619;-87
2022/09/27 05:52:44;;;;;;;11.70;8.73;;;19.80;99.40;;;;;;10151282;29;20215;-86
2022/09/27 05:58:03;;;;;;;10.25;8.88;;;20.00;99.10;;;;;;10151692;29;20263;-87
2022/09/27 06:03:13;;;;;;;12.18;8.55;;;20.10;98.50;;;;;;10151045;29;20283;-86
2022/09/27 06:08:45;;;;;;;14.45;8.73;;;19.60;99.80;;;;;;10168016;29;20228;-86
2022/09/27 06:13:51;;;;;;;11.65;7.90;;;20.00;99.40;;;;;;10151294;29;20243;-86
2022/09/27 06:18:54;;;;;;;11.27;7.05;;;20.00;99.90;;;;;;10151217;29;20275;-86
2022/09/27 06:23:58;;;;;;;8.93;7.28;;;20.20;99.90;;;;;;10151106;29;20267;-86
2022/09/27 06:29:06;;;;;;;9.48;7.40;;;20.20;99.90;;;;;;10151196;29;20268;-86
2022/09/27 06:34:10;;;;;;;7.40;6.43;;;20.40;99.90;;;;;;10151576;29;20239;-86
2022/09/27 06:39:13;;;;;;;8.02;6.35;;;20.50;99.90;;;;;;10157663;29;20291;-86
2022/09/27 06:44:32;;;;;;;7.28;6.53;;;20.60;99.90;;;;;;10171755;29;20258;-86
2022/09/27 06:49:53;;;;;;;7.20;6.50;;;20.60;99.90;;;;;;10223813;29;20199;-86
2022/09/27 06:54:55;;;;;;;5.95;5.32;;;20.70;99.90;;;;;;10172794;29;20239;-86
2022/09/27 07:05:59;;;;;;;10.35;6.55;;;20.80;99.90;;;;;;10053107;29;20297;-86
2022/09/27 07:11:19;;;;;;;6.32;5.72;;;20.80;99.90;;;;;;10052807;29;20249;-86
2022/09/27 07:16:21;;;;;;;7.25;6.55;;;20.80;99.90;;;;;;10037472;29;20757;-86
2022/09/27 07:21:24;;;;;;;7.03;6.32;;;20.80;99.90;;;;;;10036788;29;20675;-86
2022/09/27 07:26:27;;;;;;;6.72;5.88;;;20.90;99.90;;;;;;10037048;29;20362;-86
2022/09/27 07:31:29;;;;;;;6.88;6.22;;;20.90;99.90;;;;;;10036328;29;20285;-86
2022/09/27 07:36:32;;;;;;;7.35;6.60;;;21.00;99.90;;;;;;10052328;29;20307;-86
2022/09/27 07:41:38;;;;;;;8.32;6.30;;;21.00;99.90;;;;;;10137287;29;20318;-86
2022/09/27 07:46:41;;;;;;;6.80;5.63;;;21.00;99.90;;;;;;10147393;29;20268;-86
2022/09/27 07:51:59;;;;;;;9.85;7.22;;;21.00;99.90;;;;;;10154755;29;20215;-86
2022/09/27 07:57:10;;;;;;;7.25;6.30;;;21.00;99.90;;;;;;10141016;29;20299;-86
2022/09/27 08:02:21;;;;;;;7.53;6.00;;;21.00;99.90;;;;;;10154504;29;20318;-86
2022/09/27 08:07:26;;;;;;;6.60;5.20;;;20.90;99.90;;;;;;10154688;29;20294;-85
2022/09/27 08:12:30;;;;;;;8.18;6.45;;;21.00;99.90;;;;;;10154458;29;20267;-86
2022/09/27 08:17:33;;;;;;;8.65;6.80;;;21.00;99.90;;;;;;10153390;29;20908;-86
2022/09/27 08:22:54;;;;;;;9.50;5.85;;;21.00;99.90;;;;;;10156900;29;20713;-86
2022/09/27 08:28:11;;;;;;;6.05;5.35;;;21.00;99.90;;;;;;10154024;29;20243;-86
2022/09/27 08:33:18;;;;;;;8.10;6.15;;;20.90;99.90;;;;;;10153670;29;20243;-86
2022/09/27 08:38:21;;;;;;;7.32;6.35;;;21.00;99.90;;;;;;10152978;29;20329;-86
2022/09/27 08:43:40;;;;;;;6.63;6.03;;;20.90;99.90;;;;;;10131526;23;20271;-79
2022/09/27 08:48:46;;;;;;;6.45;5.82;;;20.90;99.90;;;;;;10114284;29;20207;-79
2022/09/27 08:53:54;;;;;;;7.15;6.20;;;20.90;99.90;;;;;;10129584;29;20308;-79
2022/09/27 08:59:11;;;;;;;6.78;5.68;;;21.00;99.90;;;;;;10112994;29;20970;-79
2022/09/27 09:04:26;;;;;;;7.07;6.03;;;21.10;99.90;;;;;;10113680;29;20737;-79
2022/09/27 09:09:43;;;;;;;7.90;5.88;;;21.10;99.90;;;;;;10112811;29;20710;-79
2022/09/27 09:15:19;;;;;;;6.65;5.95;;;21.20;99.90;;;;;;10074899;29;20244;-79
2022/09/27 09:20:51;;;;;;;6.90;5.75;;;21.20;99.90;;;;;;10099200;29;20240;-79
2022/09/27 09:26:16;;;;;;;10.30;8.10;;;21.20;99.90;;;;;;10097579;29;20263;-79
2022/09/27 09:31:54;;;;;;;7.43;6.78;;;21.10;99.90;;;;;;10113196;29;20682;-79
2022/09/27 09:37:23;;;;;;;7.28;6.35;;;21.30;99.90;;;;;;10084180;29;20251;-79
2022/09/27 09:42:57;;;;;;;5.80;5.18;;;21.40;99.90;;;;;;10139974;29;20295;-79
2022/09/27 09:48:05;;;;;;;7.85;6.57;;;21.30;99.90;;;;;;10150923;29;20523;-79
2022/09/27 09:53:33;;;;;;;7.78;6.15;;;21.20;99.90;;;;;;10117161;29;20275;-79
2022/09/27 09:59:03;;;;;;;6.82;5.70;;;21.00;99.90;;;;;;10112871;29;20295;-79
2022/09/27 10:04:19;;;;;;;5.82;5.32;;;21.20;99.90;;;;;;10111797;29;20323;-79
2022/09/27 10:09:25;;;;;;;7.03;6.15;;;21.30;99.90;;;;;;10076691;29;20251;-79
2022/09/27 10:15:04;;;;;;;8.75;7.53;;;21.30;99.90;;;;;;10017189;29;20643;-79
2022/09/27 10:20:21;;;;;;;7.65;6.30;;;21.30;99.90;;;;;;9986445;29;20656;-79
2022/09/27 10:25:23;;;;;;;9.48;7.75;;;21.30;99.90;;;;;;10000433;29;20257;-79
2022/09/27 10:30:31;;;;;;;7.70;6.28;;;21.30;99.90;;;;;;10000701;29;20655;-79
2022/09/27 10:35:43;;;;;;;6.82;6.13;;;21.30;99.90;;;;;;9977817;29;20242;-79
2022/09/27 10:41:21;;;;;;;5.90;5.40;;;21.30;99.90;;;;;;9962998;29;20315;-79
2022/09/27 10:46:33;;;;;;;8.32;5.80;;;21.20;99.90;;;;;;10008799;29;20228;-79
2022/09/27 10:52:22;;;;;;;6.40;5.32;;;21.00;99.90;;;;;;10120902;29;20707;-79
2022/09/27 10:57:28;;;;;;;7.53;5.95;;;21.00;99.90;;;;;;10118043;29;20593;-79
2022/09/27 11:02:35;;;;;;;7.50;6.38;;;21.10;99.90;;;;;;10102626;29;20256;-79
2022/09/27 11:07:54;;;;;;;7.20;6.40;;;21.00;99.90;;;;;;10141730;29;20267;-79
2022/09/27 11:13:14;;;;;;;6.50;5.90;;;21.10;99.90;;;;;;10156914;29;20223;-79
2022/09/27 11:18:42;;;;;;;6.50;5.90;;;21.10;99.90;;;;;;10126468;29;20312;-79
2022/09/27 11:23:54;;;;;;;7.93;6.90;;;21.20;99.90;;;;;;10101466;29;20288;-79
2022/09/27 11:29:16;;;;;;;7.28;6.13;;;21.10;99.90;;;;;;10121399;29;20251;-79
2022/09/27 11:35:05;;;;;;;10.00;8.25;;;21.10;99.90;;;;;;10171572;29;20310;-79
2022/09/27 11:40:33;;;;;;;5.82;5.22;;;21.00;99.90;;;;;;10116665;29;20244;-79
2022/09/27 11:46:18;;;;;;;11.05;8.43;;;21.00;99.90;;;;;;10093403;29;20320;-79
2022/09/27 11:51:46;;;;;;;6.80;6.00;;;21.00;99.90;;;;;;10097838;29;20244;-79
2022/09/27 11:57:01;;;;;;;7.40;6.07;;;21.10;99.90;;;;;;10116353;29;20235;-79
2022/09/27 12:02:32;;;;;;;6.57;5.93;;;21.10;99.90;;;;;;10115621;29;20296;-79
2022/09/27 12:07:53;;;;;;;6.95;6.00;;;21.10;99.90;;;;;;9959156;29;20254;-79
2022/09/27 12:12:58;;;;;;;7.65;6.03;;;21.20;99.90;;;;;;9959293;29;20691;-79
2022/09/27 12:18:24;;;;;;;14.93;10.27;;;21.20;99.90;;;;;;9959304;29;20247;-79
2022/09/27 12:23:53;;;;;;;7.50;6.72;;;21.10;99.90;;;;;;9958564;29;20263;-79
2022/09/27 12:29:20;;;;;;;6.88;6.18;;;21.10;99.90;;;;;;9977559;29;20257;-79
2022/09/27 12:34:35;;;;;;;7.32;6.57;;;21.10;99.90;;;;;;10010421;29;20246;-79
2022/09/27 12:39:59;;;;;;;6.35;5.75;;;21.10;99.90;;;;;;10003625;29;20246;-79
2022/09/27 12:45:13;;;;;;;6.13;5.60;;;21.10;99.90;;;;;;10090997;29;20255;-80
2022/09/27 12:50:39;;;;;;;6.32;5.72;;;21.00;99.90;;;;;;10113974;29;20196;-79
2022/09/27 12:55:58;;;;;;;6.63;5.97;;;21.00;99.90;;;;;;10099023;29;20224;-79
2022/09/27 13:01:48;;;;;;;8.70;6.53;;;21.00;99.90;;;;;;10113729;29;20244;-79
2022/09/27 13:07:20;;;;;;;6.03;5.25;;;21.00;99.90;;;;;;9994753;29;20265;-79
2022/09/27 13:12:26;;;;;;;8.20;6.90;;;21.00;99.90;;;;;;9994354;29;20670;-79
2022/09/27 13:17:39;;;;;;;6.50;5.82;;;20.90;99.90;;;;;;10009700;29;20241;-82
2022/09/27 13:22:44;;;;;;;7.32;6.47;;;20.90;99.90;;;;;;10000437;29;20258;-79
2022/09/27 13:27:59;;;;;;;7.47;6.10;;;20.90;99.90;;;;;;10005424;29;20284;-79
2022/09/27 13:33:13;;;;;;;5.97;5.38;;;20.80;99.90;;;;;;9974556;29;20350;-80
2022/09/27 13:38:25;;;;;;;6.57;5.95;;;20.90;99.90;;;;;;10073253;29;20255;-79
2022/09/27 13:43:50;;;;;;;14.10;10.30;;;20.80;99.90;;;;;;10067359;29;20293;-79
2022/09/27 13:49:21;;;;;;;8.18;6.72;;;20.20;99.90;;;;;;10079550;29;20300;-80
2022/09/27 13:54:56;;;;;;;9.68;6.50;;;20.30;99.90;;;;;;10084336;29;20264;-80
2022/09/27 14:00:07;;;;;;;9.45;6.60;;;20.40;99.90;;;;;;10091102;29;20303;-80
2022/09/27 14:05:36;;;;;;;7.20;6.00;;;20.50;99.90;;;;;;10081145;29;20264;-80
2022/09/27 14:10:42;;;;;;;7.32;6.35;;;20.60;99.90;;;;;;10094162;29;20342;-80
2022/09/27 14:15:46;;;;;;;6.93;5.95;;;20.60;99.90;;;;;;10100104;29;20257;-80
2022/09/27 14:20:51;;;;;;;8.20;6.40;;;20.60;99.90;;;;;;10085919;29;20672;-80
2022/09/27 14:26:25;;;;;;;6.70;5.65;;;20.60;99.90;;;;;;10100388;29;20256;-80
2022/09/27 14:31:28;;;;;;;7.25;5.60;;;20.60;99.90;;;;;;10078219;29;20237;-80
2022/09/27 14:42:27;;;;;;;5.93;5.22;;;20.50;99.90;;;;;;10084855;29;21058;-80
2022/09/27 14:47:31;;;;;;;8.43;6.22;;;20.50;99.90;;;;;;10095714;29;20228;-80
2022/09/27 14:52:37;;;;;;;6.30;5.60;;;20.50;99.90;;;;;;10098055;29;20284;-79
2022/09/27 14:57:46;;;;;;;6.85;6.15;;;20.50;99.90;;;;;;10114318;29;20683;-80
2022/09/27 15:02:53;;;;;;;6.18;5.43;;;20.60;99.90;;;;;;10112455;29;20303;-80
2022/09/27 15:07:59;;;;;;;8.57;5.53;;;20.60;99.90;;;;;;10112010;29;20236;-80
2022/09/27 15:13:03;;;;;;;9.35;6.60;;;20.50;99.90;;;;;;10102340;29;20320;-80
2022/09/27 15:18:45;;;;;;;9.32;6.18;;;20.50;99.90;;;;;;10077958;29;20248;-80
2022/09/27 15:23:47;;;;;;;8.98;7.00;;;20.50;99.90;;;;;;10094654;29;20259;-80
2022/09/27 15:28:51;;;;;;;10.05;6.28;;;20.10;99.90;;;;;;10078282;29;20236;-82
2022/09/27 15:33:55;;;;;;;7.32;6.00;;;20.30;99.90;;;;;;10078153;29;20236;-81
2022/09/27 15:39:09;;;;;;;10.90;6.38;;;20.40;99.90;;;;;;10094632;29;20244;-80
2022/09/27 15:44:36;;;;;;;7.13;5.95;;;20.50;99.90;;;;;;10093723;29;20324;-80
2022/09/27 15:49:39;;;;;;;8.52;5.70;;;20.60;99.90;;;;;;10126015;29;20235;-80
2022/09/27 15:54:41;;;;;;;7.90;5.60;;;20.70;99.90;;;;;;10171369;29;20690;-80
2022/09/27 15:59:43;;;;;;;6.65;4.88;;;20.80;99.90;;;;;;10155793;29;20577;-80
2022/09/27 16:04:46;;;;;;;7.93;5.25;;;20.90;99.90;;;;;;10135298;29;20665;-80
2022/09/27 16:09:50;;;;;;;5.95;5.13;;;20.90;99.90;;;;;;10115445;29;20751;-80
2022/09/27 16:14:53;;;;;;;8.50;5.22;;;20.90;99.90;;;;;;10132442;29;20232;-80
2022/09/27 16:19:56;;;;;;;5.88;5.10;;;20.90;99.90;;;;;;10132271;29;20256;-80
2022/09/27 16:25:00;;;;;;;5.90;5.05;;;20.90;99.90;;;;;;10114730;29;20668;-80
2022/09/27 16:30:03;;;;;;;6.78;5.28;;;20.90;99.90;;;;;;10114209;29;20291;-80
2022/09/27 16:35:05;;;;;;;6.15;5.43;;;21.00;99.90;;;;;;10114439;29;20244;-79
2022/09/27 16:40:09;;;;;;;7.00;5.00;;;21.00;99.90;;;;;;10112548;29;20307;-80
2022/09/27 16:45:15;;;;;;;6.75;5.22;;;21.00;99.90;;;;;;10113787;29;20295;-80
2022/09/27 16:55:41;;;;;;;7.40;5.50;;;20.90;99.90;;;;;;10129051;29;20740;-80
2022/09/27 17:00:44;;;;;;;8.10;5.95;;;21.00;99.90;;;;;;10112578;29;20691;-80
2022/09/27 17:05:47;;;;;;;5.43;4.47;;;21.00;99.90;;;;;;10130025;29;20248;-81
2022/09/27 17:10:49;;;;;;;6.38;5.10;;;20.90;99.90;;;;;;10111313;29;20236;-80
2022/09/27 17:15:53;;;;;;;8.10;5.32;;;20.90;99.90;;;;;;10129312;29;20240;-80
2022/09/27 17:21:02;;;;;;;5.57;4.97;;;20.90;99.90;;;;;;10128258;29;20213;-80
2022/09/27 17:26:16;;;;;;;7.72;6.57;;;20.90;99.90;;;;;;10110779;29;20299;-80
2022/09/27 17:31:19;;;;;;;7.10;5.38;;;20.60;99.90;;;;;;10126727;29;20236;-80
2022/09/27 17:36:24;;;;;;;8.70;5.78;;;19.80;99.90;;;;;;10127850;29;20236;-79
2022/09/27 17:41:28;;;;;;;5.47;4.90;;;19.40;99.90;;;;;;10124340;29;20271;-80
2022/09/27 17:46:33;;;;;;;5.63;4.65;;;19.70;99.90;;;;;;10094314;29;20665;-79
2022/09/27 17:51:38;;;;;;;5.20;4.57;;;20.20;99.90;;;;;;10094221;29;20232;-80
2022/09/27 17:56:42;;;;;;;7.10;4.78;;;20.60;99.90;;;;;;10126463;29;20239;-80
2022/09/27 18:01:46;;;;;;;5.57;4.97;;;20.60;99.90;;;;;;10128195;29;20241;-80
2022/09/27 18:06:49;;;;;;;5.03;4.00;;;20.70;99.90;;;;;;10111333;29;20300;-80
2022/09/27 18:11:51;;;;;;;5.05;4.57;;;20.70;99.90;;;;;;10128887;29;20232;-80
2022/09/27 18:16:56;;;;;;;6.32;4.68;;;20.70;99.90;;;;;;10112147;29;20264;-80
2022/09/27 18:21:59;;;;;;;6.03;4.45;;;20.70;99.90;;;;;;10128417;29;20747;-80
2022/09/27 18:27:03;;;;;;;6.65;4.90;;;20.70;99.90;;;;;;10128286;29;20296;-79
2022/09/27 18:32:05;;;;;;;5.95;5.10;;;20.60;99.90;;;;;;10119181;29;20239;-79
2022/09/27 18:37:08;;;;;;;5.47;4.65;;;20.60;99.90;;;;;;10117171;29;20244;-79
2022/09/27 18:42:11;;;;;;;5.40;4.40;;;20.60;99.90;;;;;;10100957;29;20320;-79
2022/09/27 18:47:14;;;;;;;6.03;4.63;;;20.60;99.90;;;;;;10096622;29;20305;-80
2022/09/27 18:52:17;;;;;;;6.25;4.32;;;20.60;99.90;;;;;;10063942;29;20353;-80
2022/09/27 18:57:19;;;;;;;5.80;4.90;;;20.60;99.90;;;;;;10078743;29;20672;-79
2022/09/27 19:02:22;;;;;;;5.38;4.85;;;20.50;99.90;;;;;;10096718;29;20261;-81
2022/09/27 19:07:24;;;;;;;5.15;4.22;;;20.60;99.90;;;;;;10079744;29;20289;-80
2022/09/27 19:12:27;;;;;;;8.27;4.72;;;20.70;99.90;;;;;;10079720;29;20257;-80
2022/09/27 19:17:30;;;;;;;5.35;4.70;;;20.70;99.90;;;;;;10096070;29;20232;-80
2022/09/27 19:22:32;;;;;;;5.25;4.20;;;20.70;99.90;;;;;;10079102;29;20712;-80
2022/09/27 19:27:36;;;;;;;6.72;4.68;;;20.70;99.90;;;;;;10095639;29;20257;-80
2022/09/27 19:32:45;;;;;;;4.78;3.78;;;20.70;99.90;;;;;;10079629;29;20240;-79
2022/09/27 19:37:48;;;;;;;5.15;4.65;;;20.60;99.90;;;;;;10095118;29;20347;-79
2022/09/27 19:42:52;;;;;;;6.78;4.57;;;20.60;99.90;;;;;;10114992;29;20316;-79
2022/09/27 19:47:55;;;;;;;7.10;5.20;;;20.60;99.90;;;;;;10116649;29;20251;-78
2022/09/27 19:52:57;;;;;;;6.13;4.78;;;20.60;99.90;;;;;;10096275;29;20237;-78
2022/09/27 19:58:00;;;;;;;5.00;4.50;;;20.60;99.90;;;;;;10108996;29;20236;-79
2022/09/27 20:03:02;;;;;;;5.15;4.28;;;20.60;99.90;;;;;;10105394;29;20228;-79
2022/09/27 20:08:06;;;;;;;5.95;4.82;;;20.70;99.90;;;;;;10132909;29;20256;-79
2022/09/27 20:13:09;;;;;;;7.22;5.75;;;20.70;99.90;;;;;;10114731;29;20248;-79
2022/09/27 20:18:11;;;;;;;8.30;5.40;;;20.00;99.90;;;;;;10113601;29;20315;-79
2022/09/27 20:23:18;;;;;;;9.00;6.00;;;19.80;99.90;;;;;;10131654;29;20268;-79
2022/09/27 20:28:21;;;;;;;7.45;5.55;;;20.10;99.90;;;;;;9779400;29;10000559;-79
2022/09/27 20:39:06;;;;;;;6.68;5.78;;;20.30;99.90;;;;;;10005999;29;20298;-79
2022/09/27 20:44:11;;;;;;;9.35;5.60;;;20.40;99.90;;;;;;9975247;29;20274;-79
2022/09/27 20:49:17;;;;;;;7.53;4.93;;;20.50;99.90;;;;;;9955312;29;20246;-79
2022/09/27 20:54:19;;;;;;;6.13;5.13;;;20.50;99.90;;;;;;9969847;29;20250;-79
2022/09/27 20:59:22;;;;;;;6.90;5.18;;;20.50;99.90;;;;;;9959744;29;20304;-78
2022/09/27 21:04:25;;;;;;;6.22;4.70;;;20.50;99.90;;;;;;9966744;29;20263;-80
2022/09/27 21:09:27;;;;;;;8.15;5.32;;;20.40;99.90;;;;;;10052714;29;20237;-80
2022/09/27 21:14:30;;;;;;;8.02;4.82;;;20.40;99.90;;;;;;10091453;29;20284;-80
2022/09/27 21:19:33;;;;;;;5.47;4.43;;;20.40;99.90;;;;;;10068536;29;20245;-80
2022/09/27 21:24:36;;;;;;;7.00;5.03;;;20.50;99.90;;;;;;10068921;29;20665;-80
2022/09/27 21:29:38;;;;;;;5.70;4.78;;;20.40;99.90;;;;;;10064935;29;20210;-80
2022/09/27 21:34:41;;;;;;;7.18;5.28;;;20.40;99.90;;;;;;10087799;29;20237;-79
2022/09/27 21:39:43;;;;;;;7.72;4.97;;;20.50;99.90;;;;;;10075096;29;20681;-80
2022/09/27 21:44:45;;;;;;;6.97;4.60;;;20.50;99.90;;;;;;10070189;29;20260;-80
2022/09/27 21:49:48;;;;;;;7.65;5.22;;;20.40;99.90;;;;;;10072427;29;20725;-79
2022/09/27 21:54:50;;;;;;;6.63;4.50;;;20.40;99.90;;;;;;10073609;29;20734;-80
2022/09/27 21:59:53;;;;;;;6.85;4.50;;;20.40;99.90;;;;;;10073755;29;20216;-80
2022/09/27 22:04:57;;;;;;;5.82;4.47;;;20.30;99.90;;;;;;10090435;29;20636;-80
2022/09/27 22:10:00;;;;;;;6.03;4.28;;;20.40;99.90;;;;;;10097855;29;20699;-79
2022/09/27 22:15:03;;;;;;;5.97;4.40;;;20.40;99.90;;;;;;10080746;29;20278;-79
2022/09/27 22:20:05;;;;;;;4.93;4.15;;;20.30;99.90;;;;;;10078401;29;20232;-79
2022/09/27 22:25:08;;;;;;;6.55;4.05;;;20.30;99.90;;;;;;10097617;29;20248;-79
2022/09/27 22:30:11;;;;;;;5.78;4.28;;;20.30;99.90;;;;;;10080633;29;20236;-79
2022/09/27 22:35:13;;;;;;;6.78;4.32;;;20.40;99.90;;;;;;10057002;29;20657;-79
2022/09/27 22:40:16;;;;;;;6.22;4.53;;;20.30;99.90;;;;;;10058393;29;21103;-80
2022/09/27 22:45:19;;;;;;;6.00;4.72;;;20.40;99.90;;;;;;10118909;29;20259;-80
2022/09/27 22:50:21;;;;;;;4.30;3.65;;;20.30;99.90;;;;;;10119127;29;20236;-80
2022/09/27 22:55:24;;;;;;;6.43;4.30;;;20.30;99.90;;;;;;10133934;29;20236;-79
2022/09/27 23:00:28;;;;;;;5.95;3.80;;;20.30;99.90;;;;;;10118222;29;20232;-80
2022/09/27 23:05:30;;;;;;;5.18;4.03;;;20.30;99.90;;;;;;10135213;29;20252;-79
2022/09/27 23:10:34;;;;;;;6.68;3.88;;;20.30;99.90;;;;;;10124405;29;20293;-79
2022/09/27 23:15:37;;;;;;;5.22;4.13;;;20.30;99.90;;;;;;10132726;29;20228;-79
2022/09/27 23:20:39;;;;;;;4.47;3.75;;;20.30;99.90;;;;;;10135019;29;20688;-80
2022/09/27 23:25:42;;;;;;;6.97;4.38;;;20.30;99.90;;;;;;10132524;29;20252;-79
2022/09/27 23:30:44;;;;;;;5.95;3.95;;;20.20;99.90;;;;;;10117356;29;20220;-80
2022/09/27 23:35:49;;;;;;;5.93;3.53;;;20.20;99.90;;;;;;10134026;29;20236;-79
2022/09/27 23:40:54;;;;;;;5.22;3.47;;;20.20;99.90;;;;;;10133206;29;20260;-79
2022/09/27 23:45:56;;;;;;;4.95;3.70;;;20.20;99.90;;;;;;10133429;29;20382;-79
2022/09/27 23:50:59;;;;;;;4.80;3.83;;;20.10;99.90;;;;;;10133090;29;20228;-79
2022/09/27 23:56:06;;;;;;;5.13;3.90;;;20.20;99.90;;;;;;10132777;29;20236;-79
